createdAt,value
2017-11-03T00:04:35.993Z,99.90
2017-11-03T00:09:39.206Z,99.90
2017-11-03T00:14:42.412Z,99.90
2017-11-03T00:19:45.633Z,99.90
2017-11-03T00:24:48.830Z,99.90
2017-11-03T00:29:52.010Z,99.90
2017-11-03T00:34:55.202Z,99.90
2017-11-03T00:39:58.480Z,99.90
2017-11-03T00:45:02.442Z,99.90
2017-11-03T00:50:05.655Z,99.90
2017-11-03T00:55:08.932Z,99.90
2017-11-03T01:00:12.882Z,99.90
2017-11-03T01:05:16.058Z,99.90
2017-11-03T01:10:20.067Z,99.90
2017-11-03T01:15:23.395Z,99.90
2017-11-03T01:20:27.346Z,99.90
2017-11-03T01:25:30.549Z,99.90
2017-11-03T01:30:33.750Z,99.90
2017-11-03T01:35:36.963Z,99.90
2017-11-03T01:40:40.127Z,99.90
2017-11-03T01:45:44.082Z,99.90
2017-11-03T01:50:47.270Z,99.90
2017-11-03T01:55:51.243Z,99.90
2017-11-03T02:00:54.458Z,99.90
2017-11-03T02:05:57.639Z,99.90
2017-11-03T02:11:00.826Z,99.90
2017-11-03T02:16:04.034Z,99.90
2017-11-03T02:21:07.299Z,99.90
2017-11-03T02:26:10.492Z,99.90
2017-11-03T02:31:13.673Z,99.90
2017-11-03T02:36:16.883Z,99.90
2017-11-03T02:41:20.058Z,99.90
2017-11-03T02:46:23.272Z,99.90
2017-11-03T02:51:26.448Z,99.90
2017-11-03T02:56:29.654Z,99.90
2017-11-03T03:01:32.857Z,99.90
2017-11-03T03:06:36.054Z,99.90
2017-11-03T03:11:39.254Z,99.90
2017-11-03T03:16:42.437Z,99.90
2017-11-03T03:21:45.626Z,99.90
2017-11-03T03:26:48.790Z,99.90
2017-11-03T03:31:51.967Z,99.90
2017-11-03T03:36:55.162Z,99.90
2017-11-03T03:41:58.329Z,99.90
2017-11-03T03:47:01.486Z,99.90
2017-11-03T03:52:04.675Z,99.90
2017-11-03T03:57:07.826Z,99.90
2017-11-03T04:02:11.822Z,99.90
2017-11-03T04:07:15.030Z,99.90
2017-11-03T04:12:18.207Z,99.90
2017-11-03T04:17:21.415Z,99.90
2017-11-03T04:22:24.601Z,99.90
2017-11-03T04:27:27.781Z,99.90
2017-11-03T04:32:30.937Z,99.90
2017-11-03T04:37:34.160Z,99.90
2017-11-03T04:42:37.363Z,99.90
2017-11-03T04:47:40.545Z,99.90
2017-11-03T04:52:43.710Z,99.90
2017-11-03T04:57:46.896Z,99.90
2017-11-03T05:02:50.186Z,99.90
2017-11-03T05:07:53.383Z,99.90
2017-11-03T05:12:56.562Z,99.90
2017-11-03T05:17:59.762Z,99.90
2017-11-03T05:23:04.376Z,99.90
2017-11-03T05:28:07.562Z,99.90
2017-11-03T05:33:10.740Z,99.90
2017-11-03T05:38:14.063Z,99.90
2017-11-03T05:43:17.262Z,99.90
2017-11-03T05:48:20.442Z,99.90
2017-11-03T05:53:23.618Z,99.90
2017-11-03T05:58:26.837Z,99.90
2017-11-03T06:03:30.817Z,99.90
2017-11-03T06:08:34.050Z,99.90
2017-11-03T06:13:37.240Z,99.90
2017-11-03T06:18:40.435Z,99.90
2017-11-03T06:23:43.629Z,99.90
2017-11-03T06:28:48.656Z,99.90
2017-11-03T06:33:51.848Z,99.90
2017-11-03T06:38:55.782Z,99.90
2017-11-03T06:43:59.943Z,99.90
2017-11-03T06:49:03.138Z,99.90
2017-11-03T06:54:06.301Z,99.90
2017-11-03T06:59:09.554Z,99.90
2017-11-03T07:04:12.786Z,99.90
2017-11-03T07:09:15.962Z,99.90
2017-11-03T07:14:19.161Z,99.90
2017-11-03T07:19:22.353Z,99.90
2017-11-03T07:24:26.307Z,99.90
2017-11-03T07:29:30.362Z,99.90
2017-11-03T07:34:33.561Z,99.90
2017-11-03T07:39:36.767Z,99.90
2017-11-03T07:44:39.950Z,99.90
2017-11-03T07:49:43.193Z,99.90
2017-11-03T07:54:46.387Z,99.90
2017-11-03T07:59:49.602Z,99.90
2017-11-03T08:04:52.911Z,99.90
2017-11-03T08:09:56.127Z,99.90
2017-11-03T08:14:59.309Z,99.90
2017-11-03T08:20:02.519Z,99.90
2017-11-03T08:25:05.742Z,99.90
2017-11-03T08:30:09.000Z,99.90
2017-11-03T08:35:12.186Z,99.90
2017-11-03T08:40:16.160Z,99.90
2017-11-03T08:45:19.381Z,99.90
2017-11-03T08:50:22.572Z,99.90
2017-11-03T08:55:25.810Z,99.90
2017-11-03T09:00:28.988Z,99.90
2017-11-03T09:05:32.178Z,99.90
2017-11-03T09:10:35.373Z,99.90
2017-11-03T09:15:38.734Z,99.90
2017-11-03T09:20:41.903Z,99.90
2017-11-03T09:25:45.095Z,99.90
2017-11-03T09:30:48.373Z,99.90
2017-11-03T09:35:52.439Z,99.90
2017-11-03T09:40:55.658Z,99.90
2017-11-03T09:45:59.009Z,99.90
2017-11-03T09:51:03.074Z,99.90
2017-11-03T09:56:06.285Z,99.90
2017-11-03T10:01:09.493Z,99.90
2017-11-03T10:06:12.705Z,99.90
2017-11-03T10:11:15.899Z,99.90
2017-11-03T10:16:19.242Z,99.90
2017-11-03T10:21:22.419Z,99.90
2017-11-03T10:26:25.607Z,99.90
2017-11-03T10:31:28.799Z,99.90
2017-11-03T10:36:32.791Z,99.90
2017-11-03T10:41:35.997Z,99.90
2017-11-03T10:46:39.199Z,99.90
2017-11-03T10:51:42.942Z,99.90
2017-11-03T10:56:46.157Z,99.90
2017-11-03T11:01:49.325Z,99.90
2017-11-03T11:06:52.549Z,99.90
2017-11-03T11:11:55.799Z,99.90
2017-11-03T11:16:59.005Z,99.90
2017-11-03T11:22:02.182Z,99.90
2017-11-03T11:27:06.165Z,99.90
2017-11-03T11:32:09.381Z,99.90
2017-11-03T11:37:12.601Z,99.90
2017-11-03T11:42:15.767Z,99.90
2017-11-03T11:47:19.053Z,99.90
2017-11-03T11:52:22.986Z,98.70
2017-11-03T11:57:26.246Z,98.70
2017-11-03T12:02:29.443Z,98.70
2017-11-03T12:07:32.637Z,97.50
2017-11-03T12:12:35.809Z,96.30
2017-11-03T12:17:39.017Z,96.00
2017-11-03T12:22:42.285Z,95.10
2017-11-03T12:27:45.495Z,96.00
2017-11-03T12:32:48.667Z,94.50
2017-11-03T12:37:51.873Z,94.90
2017-11-03T12:42:55.083Z,92.70
2017-11-03T12:47:58.275Z,90.90
2017-11-03T12:53:01.455Z,91.00
2017-11-03T12:58:04.695Z,90.10
2017-11-03T13:03:07.882Z,86.70
2017-11-03T13:08:11.147Z,87.70
2017-11-03T13:13:15.099Z,87.60
2017-11-03T13:18:18.341Z,87.60
2017-11-03T13:23:21.586Z,88.50
2017-11-03T13:28:24.785Z,88.50
2017-11-03T13:33:27.966Z,88.20
2017-11-03T13:38:31.157Z,90.70
2017-11-03T13:43:34.347Z,91.00
2017-11-03T13:48:37.569Z,90.60
2017-11-03T13:53:40.770Z,89.70
2017-11-03T13:58:43.986Z,87.80
2017-11-03T14:03:47.291Z,88.70
2017-11-03T14:08:50.494Z,91.40
2017-11-03T14:13:53.691Z,93.60
2017-11-03T14:18:56.918Z,93.40
2017-11-03T14:24:00.127Z,93.50
2017-11-03T14:29:03.327Z,90.70
2017-11-03T14:34:06.538Z,93.10
2017-11-03T14:39:09.826Z,91.50
2017-11-03T14:44:13.036Z,91.90
2017-11-03T14:49:16.261Z,91.10
2017-11-03T14:54:19.472Z,92.10
2017-11-03T14:59:22.748Z,90.10
2017-11-03T15:04:26.408Z,91.80
2017-11-03T15:09:29.655Z,94.00
2017-11-03T15:14:32.854Z,94.80
2017-11-03T15:19:36.782Z,96.60
2017-11-03T15:24:39.967Z,96.60
2017-11-03T15:29:43.943Z,95.20
2017-11-03T15:34:47.150Z,95.20
2017-11-03T15:39:50.498Z,94.90
2017-11-03T15:44:53.889Z,93.50
2017-11-03T15:49:57.117Z,94.10
2017-11-03T15:55:00.518Z,97.50
2017-11-03T16:00:03.750Z,98.20
2017-11-03T16:05:07.714Z,96.30
2017-11-03T16:10:11.006Z,96.20
2017-11-03T16:15:14.218Z,96.50
2017-11-03T16:20:17.483Z,99.30
2017-11-03T16:25:21.450Z,99.90
2017-11-03T16:30:24.662Z,99.90
2017-11-03T16:35:27.954Z,99.60
2017-11-03T16:40:31.153Z,99.90
2017-11-03T16:45:34.356Z,99.90
2017-11-03T16:50:38.334Z,99.90
2017-11-03T16:55:41.511Z,99.90
2017-11-03T17:00:44.695Z,99.90
2017-11-03T17:05:47.982Z,99.90
2017-11-03T17:10:51.921Z,99.90
2017-11-03T17:15:55.120Z,99.90
2017-11-03T17:20:59.176Z,99.90
2017-11-03T17:26:02.350Z,99.90
2017-11-03T17:31:06.312Z,99.90
2017-11-03T17:36:09.563Z,99.90
2017-11-03T17:41:12.812Z,99.90
2017-11-03T17:46:16.031Z,99.90
2017-11-03T17:51:19.277Z,99.90
2017-11-03T17:56:22.494Z,99.90
2017-11-03T18:01:25.721Z,99.90
2017-11-03T18:06:28.967Z,99.90
2017-11-03T18:11:32.115Z,99.90
2017-11-03T18:16:36.050Z,99.90
2017-11-03T18:21:40.080Z,99.90
2017-11-03T18:26:44.043Z,99.90
2017-11-03T18:31:47.311Z,99.90
2017-11-03T18:36:50.522Z,99.90
2017-11-03T18:41:54.607Z,99.90
2017-11-03T18:46:57.828Z,99.90
2017-11-03T18:52:01.167Z,99.90
2017-11-03T18:57:04.349Z,99.90
2017-11-03T19:02:18.191Z,99.90
2017-11-03T19:07:21.458Z,99.90
2017-11-03T19:12:24.698Z,99.90
2017-11-03T19:17:27.962Z,99.90
2017-11-03T19:22:31.169Z,99.90
2017-11-03T19:27:34.418Z,99.90
2017-11-03T19:32:37.631Z,99.90
2017-11-03T19:37:40.935Z,99.90
2017-11-03T19:42:44.159Z,99.90
2017-11-03T19:47:47.526Z,99.90
2017-11-03T19:52:50.735Z,99.90
2017-11-03T19:57:54.033Z,99.90
2017-11-03T20:02:57.368Z,99.90
2017-11-03T20:08:00.629Z,99.90
2017-11-03T20:13:03.839Z,99.90
2017-11-03T20:18:07.807Z,99.90
2017-11-03T20:23:11.039Z,99.90
2017-11-03T20:28:14.355Z,99.90
2017-11-03T20:33:17.614Z,99.90
2017-11-03T20:38:20.830Z,99.90
2017-11-03T20:43:24.108Z,99.90
2017-11-03T20:48:27.289Z,99.90
2017-11-03T20:53:31.871Z,99.90
2017-11-03T20:58:35.157Z,99.90
2017-11-03T21:03:38.609Z,99.90
2017-11-03T21:08:41.841Z,99.90
2017-11-03T21:13:45.934Z,99.90
2017-11-03T21:18:49.143Z,99.90
2017-11-03T21:23:52.484Z,99.90
2017-11-03T21:28:55.666Z,99.90
2017-11-03T21:33:58.850Z,99.90
2017-11-03T21:39:02.050Z,99.90
2017-11-03T21:44:05.238Z,99.90
2017-11-03T21:49:08.430Z,99.90
2017-11-03T21:54:11.641Z,99.90
2017-11-03T21:59:14.867Z,99.90
2017-11-03T22:04:18.161Z,99.90
2017-11-03T22:09:21.362Z,99.90
2017-11-03T22:14:25.348Z,99.90
2017-11-03T22:19:28.537Z,99.90
2017-11-03T22:24:31.723Z,99.90
2017-11-03T22:29:34.917Z,99.90
2017-11-03T22:34:38.250Z,99.90
2017-11-03T22:39:41.478Z,99.90
2017-11-03T22:44:44.891Z,99.90
2017-11-03T22:49:48.120Z,99.90
2017-11-03T22:54:52.183Z,99.90
2017-11-03T22:59:55.384Z,99.90
2017-11-03T23:04:58.574Z,99.90
2017-11-03T23:10:01.778Z,99.90
2017-11-03T23:15:04.999Z,99.90
2017-11-03T23:20:08.233Z,99.90
2017-11-03T23:25:11.426Z,99.90
2017-11-03T23:30:14.644Z,99.90
2017-11-03T23:35:17.813Z,99.90
2017-11-03T23:40:21.010Z,99.90
2017-11-03T23:45:24.214Z,99.90
2017-11-03T23:50:27.404Z,99.90
2017-11-03T23:55:31.409Z,99.90
